createdAt,value
2019-02-24T00:00:37.399Z,16.50
2019-02-24T00:03:05.628Z,17.03
2019-02-24T00:05:34.111Z,20.23
2019-02-24T00:08:02.607Z,19.10
2019-02-24T00:10:30.832Z,20.27
2019-02-24T00:12:59.085Z,21.80
2019-02-24T00:15:27.348Z,23.10
2019-02-24T00:17:55.577Z,25.40
2019-02-24T00:20:23.798Z,25.37
2019-02-24T00:22:52.043Z,28.37
2019-02-24T00:25:20.279Z,28.73
2019-02-24T00:27:48.520Z,30.13
2019-02-24T00:30:16.784Z,33.73
2019-02-24T00:32:45.008Z,34.23
2019-02-24T00:35:13.231Z,36.50
2019-02-24T00:37:41.715Z,37.90
2019-02-24T00:40:10.195Z,39.40
2019-02-24T00:42:38.453Z,39.80
2019-02-24T00:45:07.715Z,42.13
2019-02-24T00:47:35.948Z,42.17
2019-02-24T00:50:05.431Z,43.40
2019-02-24T00:52:33.651Z,43.00
2019-02-24T00:55:01.905Z,44.77
2019-02-24T00:57:30.132Z,47.03
2019-02-24T00:59:58.351Z,48.37
2019-02-24T01:02:26.605Z,48.73
2019-02-24T01:04:54.844Z,50.47
2019-02-24T01:07:23.083Z,50.83
2019-02-24T01:09:51.539Z,52.23
2019-02-24T01:12:19.794Z,53.87
2019-02-24T01:14:48.016Z,53.47
2019-02-24T01:17:16.473Z,55.30
2019-02-24T01:19:44.716Z,55.60
2019-02-24T01:22:13.183Z,55.97
2019-02-24T01:24:41.412Z,58.47
2019-02-24T01:27:09.661Z,59.50
2019-02-24T01:29:37.879Z,60.23
2019-02-24T01:32:06.113Z,60.00
2019-02-24T01:34:34.583Z,60.10
2019-02-24T01:37:02.808Z,61.77
2019-02-24T01:39:31.096Z,63.33
2019-02-24T01:41:59.326Z,62.37
2019-02-24T01:44:27.559Z,64.30
2019-02-24T01:46:55.804Z,62.23
2019-02-24T01:49:24.051Z,64.67
2019-02-24T01:51:52.275Z,65.03
2019-02-24T01:54:20.732Z,64.43
2019-02-24T01:56:48.988Z,64.58
2019-02-24T01:59:17.196Z,66.17
2019-02-24T02:01:45.432Z,64.77
2019-02-24T02:04:13.680Z,67.60
2019-02-24T02:06:41.908Z,67.33
2019-02-24T02:09:10.147Z,65.42
2019-02-24T02:11:38.416Z,65.10
2019-02-24T02:14:06.640Z,66.10
2019-02-24T02:16:34.911Z,70.03
2019-02-24T02:19:03.127Z,68.37
2019-02-24T02:21:31.593Z,65.87
2019-02-24T02:23:59.840Z,70.10
2019-02-24T02:26:28.060Z,69.80
2019-02-24T02:28:56.299Z,69.60
2019-02-24T02:31:24.748Z,68.07
2019-02-24T02:33:52.992Z,67.00
2019-02-24T02:36:21.228Z,65.23
2019-02-24T02:38:49.490Z,63.80
2019-02-24T02:41:17.729Z,64.13
2019-02-24T02:43:45.982Z,65.37
2019-02-24T02:46:14.440Z,62.85
2019-02-24T02:48:42.687Z,63.77
2019-02-24T02:51:11.148Z,58.83
2019-02-24T02:53:39.370Z,63.23
2019-02-24T02:56:07.615Z,63.97
2019-02-24T02:58:36.101Z,62.00
2019-02-24T03:01:04.321Z,61.77
2019-02-24T03:03:32.563Z,58.67
2019-02-24T03:06:02.459Z,59.80
2019-02-24T03:08:47.157Z,59.60
2019-02-24T03:11:16.226Z,59.03
2019-02-24T03:13:44.524Z,57.70
2019-02-24T03:16:12.786Z,56.48
2019-02-24T03:18:41.011Z,52.23
2019-02-24T03:21:09.239Z,54.47
2019-02-24T03:23:37.484Z,49.00
2019-02-24T03:26:05.724Z,51.37
2019-02-24T03:28:33.948Z,50.90
2019-02-24T03:31:02.198Z,51.07
2019-02-24T03:33:30.425Z,50.08
2019-02-24T03:35:58.679Z,49.37
2019-02-24T03:38:26.913Z,48.70
2019-02-24T03:40:55.176Z,48.67
2019-02-24T03:43:23.612Z,45.60
2019-02-24T03:45:51.851Z,43.40
2019-02-24T03:48:20.071Z,44.43
2019-02-24T03:50:48.318Z,43.70
2019-02-24T03:53:16.567Z,43.10
2019-02-24T03:55:44.788Z,41.65
2019-02-24T03:58:13.042Z,39.13
2019-02-24T04:00:41.287Z,38.23
2019-02-24T04:03:09.513Z,38.87
2019-02-24T04:05:37.760Z,35.65
2019-02-24T04:08:05.984Z,35.43
2019-02-24T04:10:34.226Z,38.03
2019-02-24T04:13:02.447Z,35.23
2019-02-24T04:15:30.699Z,36.10
2019-02-24T04:17:58.927Z,34.93
2019-02-24T04:20:27.192Z,34.27
2019-02-24T04:22:55.403Z,32.53
2019-02-24T04:25:23.635Z,32.40
2019-02-24T04:27:52.118Z,32.67
2019-02-24T04:30:20.339Z,31.07
2019-02-24T04:32:48.587Z,30.57
2019-02-24T04:35:16.837Z,30.53
2019-02-24T04:37:45.066Z,29.33
2019-02-24T04:40:13.307Z,28.10
2019-02-24T04:42:41.562Z,27.90
2019-02-24T04:45:09.827Z,26.57
2019-02-24T04:47:38.288Z,25.27
2019-02-24T04:50:06.508Z,25.60
2019-02-24T04:52:34.783Z,24.20
2019-02-24T04:55:02.995Z,24.63
2019-02-24T04:57:31.243Z,23.10
2019-02-24T04:59:59.476Z,22.60
2019-02-24T05:02:27.723Z,22.63
2019-02-24T05:04:55.951Z,21.50
2019-02-24T05:07:24.196Z,21.43
2019-02-24T05:09:52.651Z,20.57
2019-02-24T05:12:20.883Z,19.47
2019-02-24T05:14:49.123Z,19.77
2019-02-24T05:17:17.351Z,19.13
2019-02-24T05:19:45.609Z,19.10
2019-02-24T05:22:13.848Z,18.20
2019-02-24T05:24:42.103Z,17.13
2019-02-24T05:27:10.395Z,17.90
2019-02-24T05:29:45.305Z,16.80
2019-02-24T05:32:08.613Z,17.30
2019-02-24T05:34:36.833Z,16.40
2019-02-24T05:37:05.080Z,15.73
2019-02-24T05:39:33.313Z,15.70
2019-02-24T05:42:01.780Z,15.10
2019-02-24T05:44:30.010Z,14.50
2019-02-24T05:46:58.283Z,13.90
2019-02-24T05:49:26.784Z,14.57
2019-02-24T05:51:55.032Z,13.93
2019-02-24T05:54:23.267Z,14.10
2019-02-24T05:56:51.503Z,12.90
2019-02-24T05:59:19.733Z,13.27
2019-02-24T06:01:47.979Z,12.27
2019-02-24T06:04:16.205Z,11.73
2019-02-24T06:06:44.474Z,11.90
2019-02-24T06:09:12.676Z,11.73
2019-02-24T06:11:40.920Z,11.37
2019-02-24T06:14:09.373Z,11.40
2019-02-24T06:16:37.620Z,10.70
2019-02-24T06:19:06.097Z,10.50
2019-02-24T06:21:34.341Z,10.57
2019-02-24T06:24:02.569Z,10.07
2019-02-24T06:26:30.814Z,10.17
2019-02-24T06:28:59.291Z,9.40
2019-02-24T06:31:27.503Z,9.30
2019-02-24T06:33:55.753Z,9.20
2019-02-24T06:36:23.986Z,9.17
2019-02-24T06:38:52.223Z,9.13
2019-02-24T06:41:20.448Z,9.07
2019-02-24T06:43:48.686Z,9.10
2019-02-24T06:46:16.908Z,8.47
2019-02-24T06:48:45.386Z,8.37
2019-02-24T06:51:14.079Z,8.20
2019-02-24T06:53:42.328Z,7.77
2019-02-24T06:56:10.545Z,7.90
2019-02-24T06:58:39.016Z,7.70
2019-02-24T07:01:07.232Z,7.07
2019-02-24T07:03:35.482Z,7.97
2019-02-24T07:06:04.551Z,7.33
2019-02-24T07:08:32.797Z,7.30
2019-02-24T07:11:01.014Z,7.23
2019-02-24T07:13:29.240Z,6.70
2019-02-24T07:15:57.480Z,6.40
2019-02-24T07:18:25.720Z,6.53
2019-02-24T07:20:54.180Z,6.87
2019-02-24T07:23:22.656Z,6.80
2019-02-24T07:25:50.868Z,6.57
2019-02-24T07:28:19.116Z,6.10
2019-02-24T07:30:47.356Z,6.30
2019-02-24T07:33:15.596Z,5.80
2019-02-24T07:35:43.824Z,5.90
2019-02-24T07:38:12.141Z,5.90
2019-02-24T07:40:40.361Z,6.03
2019-02-24T07:43:08.607Z,6.10
2019-02-24T07:45:36.832Z,5.87
2019-02-24T07:48:05.052Z,5.70
2019-02-24T07:50:33.516Z,6.00
2019-02-24T07:53:01.756Z,5.50
2019-02-24T07:55:29.996Z,5.60
2019-02-24T07:57:58.460Z,5.60
2019-02-24T08:00:32.270Z,5.20
2019-02-24T08:02:56.635Z,5.57
2019-02-24T08:05:24.872Z,5.20
2019-02-24T08:07:53.089Z,5.70
2019-02-24T08:10:21.323Z,4.87
2019-02-24T08:12:49.558Z,5.13
2019-02-24T08:15:17.781Z,5.17
2019-02-24T08:17:46.011Z,4.80
2019-02-24T08:20:14.236Z,4.73
2019-02-24T08:22:42.708Z,4.70
2019-02-24T08:25:10.948Z,4.77
2019-02-24T08:27:39.176Z,4.83
2019-02-24T08:30:11.837Z,4.23
2019-02-24T08:32:40.055Z,4.77
2019-02-24T08:35:08.360Z,4.40
2019-02-24T08:37:36.603Z,4.57
2019-02-24T08:40:06.686Z,4.47
2019-02-24T08:42:34.900Z,4.57
2019-02-24T08:45:03.933Z,4.70
2019-02-24T08:47:32.151Z,4.30
2019-02-24T08:50:00.393Z,4.20
2019-02-24T08:52:28.646Z,4.10
2019-02-24T08:54:56.860Z,4.43
2019-02-24T08:57:25.079Z,4.60
2019-02-24T08:59:53.337Z,4.60
2019-02-24T09:02:21.559Z,4.30
2019-02-24T09:04:49.772Z,4.33
2019-02-24T09:07:18.049Z,4.22
2019-02-24T09:09:46.315Z,4.37
2019-02-24T09:12:15.033Z,4.47
2019-02-24T09:14:43.516Z,4.50
2019-02-24T09:17:11.751Z,4.40
2019-02-24T09:19:40.047Z,4.43
2019-02-24T09:22:08.272Z,4.00
2019-02-24T09:24:36.515Z,4.10
2019-02-24T09:27:04.733Z,4.70
2019-02-24T09:29:32.987Z,4.50
2019-02-24T09:32:01.199Z,4.23
2019-02-24T09:34:29.445Z,4.07
2019-02-24T09:36:57.915Z,11.33
2019-02-24T09:39:26.138Z,8.07
2019-02-24T09:41:54.375Z,7.22
2019-02-24T09:44:22.595Z,10.23
2019-02-24T09:46:50.844Z,9.93
2019-02-24T09:49:19.067Z,9.53
2019-02-24T09:51:47.294Z,7.83
2019-02-24T09:54:15.530Z,11.73
2019-02-24T09:56:43.980Z,12.77
2019-02-24T09:59:12.211Z,13.93
2019-02-24T10:01:40.435Z,28.10
2019-02-24T10:04:08.675Z,17.27
2019-02-24T10:06:36.929Z,38.70
2019-02-24T10:09:05.211Z,25.23
2019-02-24T10:11:33.454Z,18.53
2019-02-24T10:14:01.672Z,16.00
2019-02-24T10:16:29.919Z,23.73
2019-02-24T10:18:58.140Z,18.57
2019-02-24T10:21:26.388Z,18.70
2019-02-24T10:23:54.608Z,19.20
2019-02-24T10:26:22.858Z,22.53
2019-02-24T10:28:51.077Z,18.87
2019-02-24T10:31:20.197Z,18.87
2019-02-24T10:33:48.553Z,20.97
2019-02-24T10:36:16.820Z,20.23
2019-02-24T10:38:45.045Z,18.93
2019-02-24T10:41:13.288Z,18.07
2019-02-24T10:43:41.512Z,20.35
2019-02-24T10:46:11.328Z,25.83
2019-02-24T10:48:39.697Z,18.13
2019-02-24T10:51:07.935Z,14.73
2019-02-24T10:53:36.191Z,15.93
2019-02-24T10:56:04.665Z,15.10
2019-02-24T10:58:34.884Z,17.53
2019-02-24T11:01:02.843Z,23.50
2019-02-24T11:03:31.079Z,17.57
2019-02-24T11:05:59.574Z,23.45
2019-02-24T11:08:27.787Z,17.27
2019-02-24T11:10:56.008Z,14.57
2019-02-24T11:13:24.252Z,21.43
2019-02-24T11:15:52.474Z,21.77
2019-02-24T11:18:20.726Z,19.20
2019-02-24T11:20:48.973Z,22.23
2019-02-24T11:23:17.240Z,19.07
2019-02-24T11:25:45.467Z,25.87
2019-02-24T11:28:13.695Z,16.33
2019-02-24T11:30:41.932Z,23.10
2019-02-24T11:33:10.166Z,22.55
2019-02-24T11:35:38.400Z,18.87
2019-02-24T11:38:06.663Z,23.45
2019-02-24T11:40:34.888Z,19.37
2019-02-24T11:43:03.132Z,19.03
2019-02-24T11:45:31.371Z,24.13
2019-02-24T11:47:59.607Z,22.87
2019-02-24T11:50:27.852Z,21.53
2019-02-24T11:52:56.072Z,18.97
2019-02-24T11:55:24.339Z,37.83
2019-02-24T11:57:52.575Z,28.80
2019-02-24T12:00:20.827Z,23.57
2019-02-24T12:02:49.108Z,21.93
2019-02-24T12:05:17.754Z,21.65
2019-02-24T12:07:46.324Z,23.13
2019-02-24T12:10:14.577Z,17.80
2019-02-24T12:12:42.787Z,15.63
2019-02-24T12:15:14.800Z,16.13
2019-02-24T12:17:43.049Z,28.47
2019-02-24T12:20:12.228Z,16.53
2019-02-24T12:22:40.468Z,15.27
2019-02-24T12:25:09.846Z,22.73
2019-02-24T12:27:38.094Z,56.10
2019-02-24T12:30:12.343Z,30.32
2019-02-24T12:32:40.612Z,34.60
2019-02-24T12:35:08.863Z,29.75
2019-02-24T12:37:37.091Z,27.87
2019-02-24T12:40:08.635Z,29.55
2019-02-24T12:42:36.864Z,28.55
2019-02-24T12:45:07.147Z,27.45
2019-02-24T12:47:35.372Z,21.77
2019-02-24T12:50:05.720Z,28.05
2019-02-24T12:52:33.948Z,17.10
2019-02-24T12:55:02.194Z,19.05
2019-02-24T12:57:30.672Z,16.50
2019-02-24T12:59:58.899Z,21.48
2019-02-24T13:02:27.368Z,30.12
2019-02-24T13:04:55.587Z,17.15
2019-02-24T13:07:23.840Z,19.02
2019-02-24T13:09:52.308Z,22.15
2019-02-24T13:12:20.557Z,21.75
2019-02-24T13:14:48.796Z,18.70
2019-02-24T13:17:17.266Z,17.98
2019-02-24T13:19:45.490Z,20.52
2019-02-24T13:22:13.760Z,18.40
2019-02-24T13:24:42.000Z,21.20
2019-02-24T13:27:10.306Z,26.82
2019-02-24T13:29:38.560Z,18.10
2019-02-24T13:32:14.687Z,19.35
2019-02-24T13:34:36.780Z,21.10
2019-02-24T13:37:05.008Z,28.77
2019-02-24T13:39:33.287Z,25.85
2019-02-24T13:42:01.577Z,49.63
2019-02-24T13:44:29.804Z,48.73
2019-02-24T13:46:58.052Z,46.02
2019-02-24T13:49:26.273Z,38.02
2019-02-24T13:51:54.536Z,45.75
2019-02-24T13:54:22.760Z,43.05
2019-02-24T13:56:51.001Z,38.78
2019-02-24T13:59:19.325Z,31.57
2019-02-24T14:01:47.575Z,31.27
2019-02-24T14:04:15.816Z,29.35
2019-02-24T14:06:44.066Z,33.30
2019-02-24T14:09:12.552Z,24.98
2019-02-24T14:11:40.842Z,25.35
2019-02-24T14:14:09.953Z,28.62
2019-02-24T14:16:38.291Z,26.75
2019-02-24T14:19:06.552Z,22.40
2019-02-24T14:21:34.772Z,29.98
2019-02-24T14:24:03.009Z,27.35
2019-02-24T14:26:31.256Z,22.50
2019-02-24T14:28:59.526Z,27.42
2019-02-24T14:31:27.761Z,26.12
2019-02-24T14:33:55.985Z,24.32
2019-02-24T14:36:24.314Z,23.73
2019-02-24T14:38:52.543Z,15.78
2019-02-24T14:41:20.820Z,14.70
2019-02-24T14:43:49.044Z,13.05
2019-02-24T14:46:17.269Z,15.88
2019-02-24T14:48:45.516Z,16.05
2019-02-24T14:51:13.755Z,14.68
2019-02-24T14:53:42.100Z,16.03
2019-02-24T14:56:10.324Z,14.78
2019-02-24T14:58:38.552Z,17.27
2019-02-24T15:01:06.788Z,19.42
2019-02-24T15:03:35.253Z,14.38
2019-02-24T15:06:03.491Z,13.13
2019-02-24T15:08:31.773Z,13.47
2019-02-24T15:11:00.027Z,15.73
2019-02-24T15:13:28.266Z,20.00
2019-02-24T15:15:56.512Z,14.60
2019-02-24T15:18:24.811Z,16.60
2019-02-24T15:20:53.067Z,16.60
2019-02-24T15:23:21.292Z,14.30
2019-02-24T15:25:49.865Z,14.23
2019-02-24T15:28:18.148Z,18.32
2019-02-24T15:30:46.400Z,21.07
2019-02-24T15:33:14.633Z,18.13
2019-02-24T15:35:42.875Z,19.57
2019-02-24T15:38:11.369Z,24.33
2019-02-24T15:40:39.588Z,22.90
2019-02-24T15:43:07.840Z,27.67
2019-02-24T15:45:36.059Z,22.40
2019-02-24T15:48:04.307Z,27.30
2019-02-24T15:50:32.526Z,25.80
2019-02-24T15:53:00.783Z,23.80
2019-02-24T15:55:28.991Z,22.90
2019-02-24T15:57:57.212Z,33.70
2019-02-24T16:00:25.848Z,29.57
2019-02-24T16:03:01.045Z,28.67
2019-02-24T16:05:24.061Z,32.77
2019-02-24T16:07:52.277Z,29.07
2019-02-24T16:10:21.457Z,25.43
2019-02-24T16:12:49.700Z,28.85
2019-02-24T16:15:22.981Z,28.43
2019-02-24T16:17:51.211Z,32.55
2019-02-24T16:20:28.321Z,36.80
2019-02-24T16:22:56.559Z,31.70
2019-02-24T16:25:24.807Z,23.53
2019-02-24T16:27:53.594Z,30.33
2019-02-24T16:30:21.928Z,34.47
2019-02-24T16:32:50.149Z,27.50
2019-02-24T16:35:18.559Z,27.87
2019-02-24T16:37:46.781Z,27.53
2019-02-24T16:40:24.239Z,43.70
2019-02-24T16:42:52.490Z,45.77
2019-02-24T16:45:20.787Z,39.10
2019-02-24T16:47:49.012Z,43.33
2019-02-24T16:50:21.613Z,35.03
2019-02-24T16:52:50.160Z,42.37
2019-02-24T16:55:18.478Z,41.00
2019-02-24T16:57:46.705Z,42.97
2019-02-24T17:00:17.835Z,47.60
2019-02-24T17:02:46.320Z,38.60
2019-02-24T17:05:14.552Z,49.97
2019-02-24T17:07:42.869Z,44.17
2019-02-24T17:10:13.872Z,48.67
2019-02-24T17:12:42.145Z,41.83
2019-02-24T17:15:11.799Z,40.23
2019-02-24T17:17:40.040Z,45.60
2019-02-24T17:20:13.876Z,35.20
2019-02-24T17:22:42.096Z,30.87
2019-02-24T17:25:10.819Z,34.13
2019-02-24T17:27:39.068Z,40.43
2019-02-24T17:30:10.487Z,41.77
2019-02-24T17:32:38.727Z,39.70
2019-02-24T17:35:07.200Z,29.23
2019-02-24T17:37:35.451Z,33.93
2019-02-24T17:40:06.116Z,37.10
2019-02-24T17:42:34.368Z,39.00
2019-02-24T17:45:02.618Z,36.27
2019-02-24T17:47:30.871Z,31.87
2019-02-24T17:49:59.173Z,31.87
2019-02-24T17:52:27.447Z,38.57
2019-02-24T17:54:55.673Z,27.80
2019-02-24T17:57:23.912Z,26.03
2019-02-24T17:59:52.164Z,29.57
2019-02-24T18:02:20.381Z,32.03
2019-02-24T18:04:48.752Z,33.13
2019-02-24T18:07:17.112Z,26.93
2019-02-24T18:09:45.568Z,22.97
2019-02-24T18:12:13.815Z,26.00
2019-02-24T18:14:42.040Z,23.13
2019-02-24T18:17:10.279Z,18.70
2019-02-24T18:19:38.512Z,20.57
2019-02-24T18:22:06.764Z,24.57
2019-02-24T18:24:34.984Z,23.53
2019-02-24T18:27:03.235Z,19.57
2019-02-24T18:29:31.464Z,19.70
2019-02-24T18:31:59.704Z,13.63
2019-02-24T18:34:27.927Z,16.00
2019-02-24T18:36:56.177Z,21.07
2019-02-24T18:39:24.422Z,19.70
2019-02-24T18:41:52.715Z,21.67
2019-02-24T18:44:20.958Z,19.80
2019-02-24T18:46:49.211Z,20.00
2019-02-24T18:49:17.466Z,17.27
2019-02-24T18:51:45.690Z,14.60
2019-02-24T18:54:13.928Z,14.50
2019-02-24T18:56:42.200Z,14.83
2019-02-24T18:59:10.659Z,14.13
2019-02-24T19:01:38.939Z,20.60
2019-02-24T19:04:07.184Z,19.00
2019-02-24T19:06:39.065Z,12.53
2019-02-24T19:09:05.843Z,16.63
2019-02-24T19:11:34.105Z,17.37
2019-02-24T19:14:02.370Z,16.47
2019-02-24T19:16:30.611Z,12.87
2019-02-24T19:18:59.072Z,14.20
2019-02-24T19:21:27.300Z,17.13
2019-02-24T19:23:55.539Z,13.33
2019-02-24T19:26:23.801Z,14.93
2019-02-24T19:28:52.042Z,15.20
2019-02-24T19:31:20.294Z,15.63
2019-02-24T19:33:48.535Z,14.47
2019-02-24T19:36:16.810Z,12.73
2019-02-24T19:38:45.119Z,13.03
2019-02-24T19:41:13.375Z,14.10
2019-02-24T19:43:41.601Z,12.83
2019-02-24T19:46:10.289Z,14.30
2019-02-24T19:48:41.909Z,15.23
2019-02-24T19:51:08.473Z,12.03
2019-02-24T19:53:36.712Z,11.43
2019-02-24T19:56:04.968Z,10.13
2019-02-24T19:58:33.204Z,12.17
2019-02-24T20:01:01.448Z,14.13
2019-02-24T20:03:29.681Z,11.40
2019-02-24T20:05:57.916Z,12.47
2019-02-24T20:08:26.141Z,9.07
2019-02-24T20:10:54.396Z,9.57
2019-02-24T20:13:22.611Z,9.13
2019-02-24T20:15:50.855Z,11.33
2019-02-24T20:18:19.108Z,11.07
2019-02-24T20:20:47.358Z,12.47
2019-02-24T20:23:15.602Z,10.30
2019-02-24T20:25:43.884Z,12.27
2019-02-24T20:28:12.124Z,8.33
2019-02-24T20:30:40.373Z,11.50
2019-02-24T20:33:08.602Z,10.13
2019-02-24T20:35:36.835Z,9.50
2019-02-24T20:38:05.091Z,12.70
2019-02-24T20:40:33.301Z,7.30
2019-02-24T20:43:01.548Z,8.90
2019-02-24T20:45:30.134Z,7.00
2019-02-24T20:47:58.417Z,6.77
2019-02-24T20:50:29.214Z,9.73
2019-02-24T20:52:57.436Z,9.13
2019-02-24T20:55:25.680Z,8.63
2019-02-24T20:57:53.896Z,8.57
2019-02-24T21:00:25.400Z,7.87
2019-02-24T21:02:53.628Z,9.97
2019-02-24T21:05:21.872Z,9.77
2019-02-24T21:07:50.121Z,8.03
2019-02-24T21:10:19.580Z,8.27
2019-02-24T21:12:47.827Z,9.27
2019-02-24T21:15:17.142Z,9.57
2019-02-24T21:17:45.420Z,9.07
2019-02-24T21:20:16.528Z,8.40
2019-02-24T21:22:44.760Z,9.30
2019-02-24T21:25:13.000Z,8.13
2019-02-24T21:27:41.212Z,7.07
2019-02-24T21:30:12.190Z,9.53
2019-02-24T21:32:40.408Z,7.20
2019-02-24T21:35:10.015Z,8.00
2019-02-24T21:37:38.259Z,7.73
2019-02-24T21:40:12.160Z,8.03
2019-02-24T21:42:40.392Z,9.90
2019-02-24T21:45:11.354Z,6.97
2019-02-24T21:47:39.603Z,7.87
2019-02-24T21:50:10.655Z,7.70
2019-02-24T21:52:38.881Z,9.23
2019-02-24T21:55:07.787Z,6.90
2019-02-24T21:57:36.318Z,7.97
2019-02-24T22:00:07.809Z,8.60
2019-02-24T22:02:36.036Z,8.83
2019-02-24T22:05:07.344Z,7.30
2019-02-24T22:07:35.811Z,8.37
2019-02-24T22:10:06.464Z,8.80
2019-02-24T22:12:34.703Z,9.00
2019-02-24T22:15:03.132Z,8.40
2019-02-24T22:17:31.368Z,9.00
2019-02-24T22:19:59.655Z,7.73
2019-02-24T22:22:27.875Z,7.63
2019-02-24T22:24:56.357Z,9.77
2019-02-24T22:27:24.572Z,8.10
2019-02-24T22:29:52.816Z,6.60
2019-02-24T22:32:21.031Z,7.17
2019-02-24T22:34:49.275Z,7.50
2019-02-24T22:37:17.501Z,7.40
2019-02-24T22:39:45.883Z,7.17
2019-02-24T22:42:14.128Z,8.40
2019-02-24T22:44:42.348Z,9.03
2019-02-24T22:47:10.595Z,8.47
2019-02-24T22:49:38.824Z,6.47
2019-02-24T22:52:07.040Z,7.77
2019-02-24T22:54:35.365Z,11.60
2019-02-24T22:57:03.617Z,7.20
2019-02-24T22:59:31.911Z,8.80
2019-02-24T23:02:00.132Z,10.37
2019-02-24T23:04:28.377Z,8.53
2019-02-24T23:06:56.594Z,9.13
2019-02-24T23:09:24.836Z,7.70
2019-02-24T23:11:53.060Z,7.60
2019-02-24T23:14:21.300Z,8.70
2019-02-24T23:16:49.535Z,7.13
2019-02-24T23:19:17.784Z,7.60
2019-02-24T23:21:46.000Z,6.90
2019-02-24T23:24:14.225Z,7.93
2019-02-24T23:26:42.461Z,8.37
2019-02-24T23:29:10.683Z,7.07
2019-02-24T23:31:38.950Z,7.00
2019-02-24T23:34:07.168Z,8.40
2019-02-24T23:36:35.395Z,9.13
2019-02-24T23:39:03.968Z,8.17
2019-02-24T23:41:32.182Z,8.27
2019-02-24T23:44:00.412Z,7.00
2019-02-24T23:46:28.643Z,7.00
2019-02-24T23:48:56.888Z,8.10
2019-02-24T23:51:25.107Z,7.50
2019-02-24T23:53:53.392Z,6.90
2019-02-24T23:56:21.639Z,7.33
2019-02-24T23:58:49.853Z,6.93
